Time;durP1;ratioP1;P1;durP2;ratioP2;P2;SDS_P1;SDS_P2;PMS_P1;PMS_P2;Temp;Humidity;BMP_temperature;BMP_pressure;BME280_temperature;BME280_humidity;BME280_pressure;Samples;Min_cycle;Max_cycle;Signal;HPM_P1;HPM_P2
2022/03/20 00:01:26;;;;;;;18.73;16.23;;;7.60;55.50;;;;;;4915368;29;20428;-93
2022/03/20 00:04:49;;;;;;;21.27;17.38;;;9.40;57.00;;;;;;4915387;29;20200;-93
2022/03/20 00:08:19;;;;;;;21.23;19.03;;;8.30;56.10;;;;;;4915965;29;20180;-92
2022/03/20 00:11:42;;;;;;;23.45;18.60;;;8.10;56.00;;;;;;4914454;29;20479;-92
2022/03/20 00:15:07;;;;;;;21.25;18.77;;;8.60;56.20;;;;;;4915063;29;20203;-92
2022/03/20 00:18:33;;;;;;;21.80;19.35;;;8.20;55.90;;;;;;4916535;29;20546;-93
2022/03/20 00:21:58;;;;;;;21.95;19.20;;;8.20;56.30;;;;;;4916847;29;20637;-92
2022/03/20 00:25:24;;;;;;;20.90;18.60;;;7.00;57.20;;;;;;4915008;29;20203;-92
2022/03/20 00:28:52;;;;;;;19.20;16.88;;;6.60;56.30;;;;;;4934634;29;20435;-92
2022/03/20 00:32:19;;;;;;;22.38;19.13;;;6.70;56.70;;;;;;4928444;29;20229;-92
2022/03/20 00:35:43;;;;;;;24.53;21.23;;;6.90;57.40;;;;;;4923042;29;20203;-93
2022/03/20 00:39:11;;;;;;;25.40;18.60;;;8.40;58.50;;;;;;4935117;29;20499;-92
2022/03/20 00:42:37;;;;;;;20.23;18.03;;;9.20;59.70;;;;;;4934988;29;20509;-93
2022/03/20 00:46:03;;;;;;;22.02;19.73;;;6.90;58.20;;;;;;4947700;29;20454;-92
2022/03/20 00:49:28;;;;;;;28.27;21.60;;;8.90;59.70;;;;;;4935443;29;20218;-92
2022/03/20 00:52:56;;;;;;;25.00;19.07;;;8.10;60.70;;;;;;4937288;29;20535;-94
2022/03/20 00:56:21;;;;;;;23.27;18.55;;;6.70;59.00;;;;;;4938635;29;20459;-91
2022/03/20 00:59:47;;;;;;;24.17;18.85;;;7.10;59.70;;;;;;4937308;29;20292;-91
2022/03/20 01:08:49;;;;;;;22.63;20.35;;;7.70;62.50;;;;;;4915123;29;20836;-84
2022/03/20 01:11:19;;;;;;;25.05;20.05;;;6.00;60.30;;;;;;4936358;28;20563;-85
2022/03/20 01:13:48;;;;;;;24.02;19.23;;;5.60;61.50;;;;;;4963008;28;20218;-85
2022/03/20 01:16:13;;;;;;;22.92;18.67;;;6.60;61.60;;;;;;4968996;28;20664;-86
2022/03/20 01:18:42;;;;;;;24.37;18.80;;;;;;;;;;4954716;28;20194;-84
2022/03/20 01:21:08;;;;;;;22.05;19.80;;;6.10;60.10;;;;;;4947592;28;20270;-85
2022/03/20 01:23:38;;;;;;;25.07;19.73;;;7.50;65.90;;;;;;4956218;28;20198;-84
2022/03/20 01:26:07;;;;;;;23.10;18.93;;;7.90;66.40;;;;;;4948584;28;20443;-84
2022/03/20 01:28:36;;;;;;;19.80;17.60;;;6.70;62.50;;;;;;4969516;28;20445;-85
2022/03/20 01:31:02;;;;;;;21.90;19.33;;;6.70;62.20;;;;;;4926135;29;20561;-86
2022/03/20 01:33:27;;;;;;;21.57;19.30;;;7.80;65.40;;;;;;4978656;28;20224;-84
2022/03/20 01:35:56;;;;;;;22.17;18.80;;;6.30;66.20;;;;;;4940425;29;20194;-85
2022/03/20 01:38:32;;;;;;;21.20;18.10;;;7.70;68.50;;;;;;4961934;28;20438;-86
2022/03/20 01:41:09;;;;;;;23.87;17.83;;;6.70;66.00;;;;;;4939911;28;20525;-85
2022/03/20 01:43:47;;;;;;;24.35;17.35;;;7.70;65.30;;;;;;4947609;28;20397;-85
2022/03/20 01:46:39;;;;;;;23.40;20.58;;;7.60;63.90;;;;;;4952658;28;20189;-80
2022/03/20 01:49:21;;;;;;;24.25;18.33;;;5.70;73.60;;;;;;4937101;28;20629;-85
2022/03/20 01:59:06;;;;;;;19.00;16.42;;;6.80;60.90;;;;;;4955226;28;20186;-87
2022/03/20 02:19:25;;;;;;;;;;;;;;;;;;;;;
2022/03/20 02:21:56;;;;;;;22.08;17.52;;;6.10;59.30;;;;;;4853832;29;20386;-85
2022/03/20 02:31:31;;;;;;;20.70;17.00;;;6.00;58.50;;;;;;4937062;29;20222;-84
2022/03/20 02:34:08;;;;;;;25.13;19.90;;;5.80;59.00;;;;;;4910998;29;20935;-84
2022/03/20 02:36:54;;;;;;;22.25;18.80;;;6.80;59.40;;;;;;4931912;29;20294;-84
2022/03/20 02:39:29;;;;;;;24.63;17.90;;;7.10;59.40;;;;;;4931519;28;20623;-85
2022/03/20 02:42:38;;;;;;;24.17;18.00;;;6.50;59.20;;;;;;4922400;29;20877;-84
2022/03/20 02:49:24;;;;;;;27.20;20.57;;;8.20;59.20;;;;;;4928716;28;20484;-84
2022/03/20 02:52:50;;;;;;;;;;;;;;;;;;;;;
2022/03/20 02:56:05;;;;;;;22.85;18.50;;;5.70;57.90;;;;;;4912880;29;20423;-84
2022/03/20 02:58:37;;;;;;;24.08;18.88;;;6.10;57.90;;;;;;4858113;29;20692;-84
2022/03/20 03:01:06;;;;;;;22.45;18.30;;;5.10;57.20;;;;;;4915302;29;20217;-84
2022/03/20 03:03:53;;;;;;;21.92;18.67;;;8.10;65.00;;;;;;4923161;29;20185;-83
2022/03/20 03:06:49;;;;;;;21.80;18.58;;;6.20;58.60;;;;;;4913637;29;20226;-84
2022/03/20 03:12:06;;;;;;;24.63;19.48;;;5.90;58.70;;;;;;4937041;29;20707;-84
2022/03/20 03:17:33;;;;;;;24.40;19.17;;;6.10;58.00;;;;;;4952240;28;20217;-84
2022/03/20 03:20:12;;;;;;;21.50;18.70;;;6.80;58.60;;;;;;4934455;28;20193;-84
2022/03/20 03:22:53;;;;;;;19.50;16.70;;;6.50;56.90;;;;;;4958843;28;20190;-84
2022/03/20 03:25:58;;;;;;;19.27;16.30;;;5.80;56.70;;;;;;4954253;28;20265;-85
2022/03/20 03:28:34;;;;;;;20.50;18.27;;;5.80;58.50;;;;;;4945885;28;20482;-84
2022/03/20 03:31:05;;;;;;;23.80;17.00;;;5.70;58.20;;;;;;4954399;28;20593;-86
2022/03/20 03:36:27;;;;;;;23.38;17.98;;;8.00;58.90;;;;;;4937219;29;20405;-85
2022/03/20 03:38:56;;;;;;;24.30;18.38;;;5.80;57.50;;;;;;4944063;28;20181;-84
2022/03/20 03:42:22;;;;;;;;;;;;;;;;;;;;;
2022/03/20 03:45:01;;;;;;;21.38;17.17;;;5.70;55.60;;;;;;4946602;28;20496;-85
2022/03/20 03:47:36;;;;;;;21.42;17.30;;;8.50;59.00;;;;;;4944662;28;20235;-84
2022/03/20 03:50:10;;;;;;;25.40;19.50;;;5.10;56.60;;;;;;4952478;28;20555;-84
2022/03/20 03:56:00;;;;;;;20.00;17.90;;;5.00;54.50;;;;;;4960962;28;20228;-84
2022/03/20 03:59:08;;;;;;;23.03;17.10;;;5.90;56.80;;;;;;4935193;29;20176;-84
2022/03/20 04:01:37;;;;;;;19.77;16.57;;;5.90;55.00;;;;;;4932889;28;20430;-84
2022/03/20 04:04:05;;;;;;;20.55;16.98;;;7.00;58.00;;;;;;4955721;28;20791;-83
2022/03/20 04:06:40;;;;;;;22.42;18.80;;;7.70;57.70;;;;;;4937712;28;20721;-83
2022/03/20 04:10:02;;;;;;;23.42;17.88;;;6.00;55.20;;;;;;4935379;29;20510;-84
2022/03/20 04:13:18;;;;;;;22.85;17.17;;;7.40;56.00;;;;;;4959636;28;20206;-86
2022/03/20 04:16:34;;;;;;;20.45;17.33;;;5.20;54.50;;;;;;4928053;29;20187;-84
2022/03/20 04:26:05;;;;;;;19.30;17.00;;;5.90;54.80;;;;;;4899949;29;20336;-84
2022/03/20 04:28:51;;;;;;;;;;;;;;;;;;;;;
2022/03/20 04:32:06;;;;;;;;;;;;;;;;;;;;;
2022/03/20 04:34:38;;;;;;;20.92;17.27;;;8.20;55.60;;;;;;4869504;29;20998;-84
2022/03/20 04:37:58;;;;;;;21.58;17.23;;;7.00;56.80;;;;;;4894029;29;20231;-84
2022/03/20 04:41:22;;;;;;;22.00;17.57;;;6.60;54.80;;;;;;4893219;29;20538;-84
2022/03/20 04:59:24;;;;;;;18.83;16.83;;;5.40;54.30;;;;;;4948469;28;20463;-84
2022/03/20 05:01:50;;;;;;;18.40;16.65;;;5.40;54.40;;;;;;4953519;28;20422;-85
2022/03/20 05:04:16;;;;;;;23.03;17.57;;;4.90;54.70;;;;;;4968537;28;20261;-83
2022/03/20 05:06:45;;;;;;;21.95;18.08;;;5.10;56.70;;;;;;4939759;28;20564;-84
2022/03/20 05:18:20;;;;;;;18.83;15.13;;;6.20;55.40;;;;;;4927919;29;20203;-85
2022/03/20 05:20:46;;;;;;;22.23;15.93;;;6.10;56.80;;;;;;4935649;28;20191;-84
2022/03/20 05:23:15;;;;;;;19.80;16.60;;;6.20;57.10;;;;;;4934939;28;20194;-84
2022/03/20 05:26:20;;;;;;;22.05;17.90;;;7.50;60.30;;;;;;4916031;29;20209;-84
2022/03/20 05:28:49;;;;;;;25.25;16.42;;;5.80;57.10;;;;;;4921370;29;20191;-85
2022/03/20 05:31:35;;;;;;;23.40;18.00;;;6.10;56.90;;;;;;4932254;29;20557;-84
2022/03/20 05:34:32;;;;;;;21.67;16.98;;;4.60;64.50;;;;;;4921720;28;20688;-85
2022/03/20 05:37:06;;;;;;;27.58;17.52;;;7.00;56.40;;;;;;4923808;29;20577;-84
2022/03/20 05:39:33;;;;;;;22.50;17.67;;;4.50;55.20;;;;;;4916805;29;20202;-84
2022/03/20 05:42:36;;;;;;;21.35;18.40;;;5.80;59.20;;;;;;4920125;29;20186;-84
2022/03/20 05:45:55;;;;;;;18.55;16.23;;;4.90;55.10;;;;;;4934547;29;20689;-85
2022/03/20 05:48:51;;;;;;;24.85;19.23;;;7.00;56.60;;;;;;4894934;23;20220;-85
2022/03/20 05:51:38;;;;;;;21.60;18.23;;;4.90;55.30;;;;;;4886859;29;20271;-86
2022/03/20 06:00:21;;;;;;;20.42;16.60;;;6.00;56.70;;;;;;4903390;29;20281;-85
2022/03/20 06:03:19;;;;;;;21.13;16.98;;;5.40;55.70;;;;;;4913052;29;20215;-86
2022/03/20 06:05:57;;;;;;;19.23;16.77;;;4.50;56.60;;;;;;4909289;29;20200;-84
2022/03/20 06:08:23;;;;;;;19.33;17.30;;;5.70;57.70;;;;;;4895180;29;20902;-84
2022/03/20 06:10:57;;;;;;;28.53;18.23;;;3.60;57.10;;;;;;4916983;29;20421;-83
2022/03/20 06:14:00;;;;;;;22.57;15.13;;;4.20;63.60;;;;;;4899888;29;20531;-85
2022/03/20 06:16:47;;;;;;;22.15;16.83;;;5.10;56.40;;;;;;4920794;29;20424;-85
2022/03/20 06:19:18;;;;;;;21.27;16.00;;;5.60;55.20;;;;;;4910713;29;20623;-84
2022/03/20 06:21:45;;;;;;;18.83;15.05;;;4.60;55.20;;;;;;4900053;29;20751;-84
2022/03/20 06:24:46;;;;;;;19.48;16.45;;;3.60;54.40;;;;;;4914927;29;20239;-86
2022/03/20 06:27:18;;;;;;;21.25;17.25;;;4.70;53.80;;;;;;4897897;29;20220;-84
2022/03/20 06:30:00;;;;;;;20.70;16.98;;;5.00;53.90;;;;;;4898974;29;20407;-83
2022/03/20 06:32:27;;;;;;;19.17;14.90;;;5.60;54.80;;;;;;4921581;29;20215;-85
2022/03/20 06:34:55;;;;;;;21.38;16.30;;;5.40;55.30;;;;;;4914309;29;20196;-85
2022/03/20 06:37:24;;;;;;;22.15;18.02;;;5.40;54.00;;;;;;4903629;29;20220;-84
2022/03/20 06:39:49;;;;;;;18.10;16.27;;;5.50;53.50;;;;;;4899616;29;20612;-84
2022/03/20 06:42:18;;;;;;;19.27;16.43;;;4.40;51.80;;;;;;4902612;29;20495;-84
2022/03/20 06:44:48;;;;;;;19.42;16.67;;;7.80;53.60;;;;;;4919723;29;20212;-84
2022/03/20 06:47:24;;;;;;;;;;;;;;;;;;;;;
2022/03/20 06:49:53;;;;;;;21.73;17.13;;;7.60;53.50;;;;;;4898535;29;20295;-84
2022/03/20 06:52:41;;;;;;;23.38;17.33;;;6.80;51.30;;;;;;4887671;29;20224;-85
2022/03/20 06:55:16;;;;;;;19.88;17.17;;;6.70;50.30;;;;;;4873546;29;20184;-85
2022/03/20 06:57:45;;;;;;;18.90;16.77;;;6.70;50.50;;;;;;4901177;29;20207;-84
2022/03/20 07:00:25;;;;;;;19.25;16.15;;;7.50;50.70;;;;;;4900087;29;20456;-85
2022/03/20 07:02:54;;;;;;;20.30;16.95;;;7.30;50.00;;;;;;4909359;29;20188;-84
2022/03/20 07:05:46;;;;;;;20.90;16.73;;;10.90;50.80;;;;;;4898980;29;20187;-85
2022/03/20 07:08:21;;;;;;;19.30;17.30;;;7.80;48.00;;;;;;4905300;29;20415;-85
2022/03/20 07:10:48;;;;;;;21.80;17.90;;;7.80;47.80;;;;;;4907412;29;20511;-84
2022/03/20 07:16:01;;;;;;;20.40;16.90;;;7.50;47.80;;;;;;4906730;29;20419;-84
2022/03/20 07:18:34;;;;;;;23.60;17.13;;;7.90;47.50;;;;;;4897476;29;20437;-85
2022/03/20 07:21:39;;;;;;;19.20;16.53;;;9.30;49.00;;;;;;4896448;29;20451;-86
2022/03/20 07:24:07;;;;;;;22.27;17.23;;;8.40;46.70;;;;;;4898562;29;20953;-85
2022/03/20 07:30:19;;;;;;;19.30;17.30;;;9.00;45.90;;;;;;4907921;29;20415;-84
2022/03/20 07:32:47;;;;;;;18.53;16.53;;;8.10;45.00;;;;;;4911589;29;20631;-84
2022/03/20 07:38:56;;;;;;;23.17;20.67;;;11.40;45.50;;;;;;4903938;29;20439;-83
2022/03/20 07:41:22;;;;;;;20.13;17.83;;;9.50;44.10;;;;;;4890920;29;20947;-83
2022/03/20 07:43:49;;;;;;;13.03;11.73;;;11.60;45.90;;;;;;4919605;29;20467;-84
2022/03/20 07:46:52;;;;;;;20.53;17.50;;;10.40;44.90;;;;;;4896004;29;20689;-85
2022/03/20 07:49:44;;;;;;;20.10;17.53;;;9.00;43.10;;;;;;4907365;29;20478;-84
2022/03/20 07:55:38;;;;;;;19.43;17.43;;;9.50;42.40;;;;;;4580975;27;20485;-85
2022/03/20 07:59:16;;;;;;;;;;;;;;;;;;;;;
2022/03/20 08:02:03;;;;;;;20.07;18.10;;;10.40;41.80;;;;;;4868802;29;20445;-85
2022/03/20 08:05:06;;;;;;;20.10;17.90;;;10.30;41.00;;;;;;4843995;29;20451;-87
2022/03/20 08:08:17;;;;;;;19.77;17.67;;;10.80;39.80;;;;;;4876134;29;20624;-85
2022/03/20 08:11:01;;;;;;;22.60;17.50;;;13.70;40.40;;;;;;4521216;29;10000332;-85
2022/03/20 08:13:39;;;;;;;22.33;19.90;;;11.50;39.70;;;;;;4846886;29;20281;-83
2022/03/20 08:16:54;;;;;;;20.90;18.73;;;11.70;40.90;;;;;;4858210;29;20454;-85
2022/03/20 08:19:55;;;;;;;21.30;19.20;;;11.60;39.80;;;;;;4773984;29;20443;-84
2022/03/20 08:22:27;;;;;;;19.33;17.40;;;11.50;39.10;;;;;;4784683;29;20448;-85
2022/03/20 08:24:58;;;;;;;23.83;21.43;;;11.90;39.40;;;;;;4841973;29;21273;-85
2022/03/20 08:27:30;;;;;;;20.77;18.77;;;11.90;38.50;;;;;;4838638;29;20450;-85
2022/03/20 08:29:57;;;;;;;21.57;19.47;;;13.10;39.60;;;;;;4926977;29;20912;-85
2022/03/20 08:32:32;;;;;;;20.70;18.60;;;10.90;39.30;;;;;;4902257;29;20484;-86
2022/03/20 08:42:03;;;;;;;22.13;20.00;;;10.90;38.90;;;;;;4913349;29;20428;-85
2022/03/20 08:45:16;;;;;;;22.83;20.43;;;9.80;39.10;;;;;;4915850;29;20533;-86
2022/03/20 08:47:54;;;;;;;25.13;20.47;;;11.20;39.10;;;;;;4915205;29;20578;-85
2022/03/20 08:50:22;;;;;;;22.60;19.83;;;12.00;39.00;;;;;;4886600;29;20472;-85
2022/03/20 08:52:55;;;;;;;22.60;20.20;;;12.40;39.70;;;;;;4883559;29;20481;-84
2022/03/20 08:55:22;;;;;;;22.80;20.37;;;12.00;40.00;;;;;;4895391;29;20436;-86
2022/03/20 08:58:05;;;;;;;23.33;19.77;;;11.20;40.00;;;;;;4898661;29;20531;-86
2022/03/20 09:00:59;;;;;;;;;;;;;;;;;;;;;
2022/03/20 09:03:29;;;;;;;23.13;19.90;;;11.20;39.70;;;;;;4913432;29;20519;-83
2022/03/20 09:06:04;;;;;;;21.67;19.37;;;11.40;40.90;;;;;;4881885;29;20447;-86
2022/03/20 09:08:51;;;;;;;22.03;19.50;;;11.60;38.80;;;;;;4889581;29;20447;-87
2022/03/20 09:11:23;;;;;;;23.17;20.77;;;12.10;38.30;;;;;;4867233;29;20469;-86
2022/03/20 09:14:34;;;;;;;22.53;20.13;;;11.20;38.00;;;;;;4577299;29;10000139;-86
2022/03/20 09:23:33;;;;;;;29.50;21.60;;;13.30;37.80;;;;;;4907020;29;20467;-84
2022/03/20 09:25:58;;;;;;;24.60;22.10;;;13.50;36.80;;;;;;4889841;29;20745;-85
2022/03/20 09:28:52;;;;;;;22.43;20.03;;;13.00;39.40;;;;;;4897749;29;20478;-86
2022/03/20 09:32:17;;;;;;;23.20;20.97;;;13.20;37.50;;;;;;4900808;29;20231;-86
2022/03/20 09:35:15;;;;;;;24.20;21.63;;;12.90;37.50;;;;;;4851452;29;21074;-87
2022/03/20 09:38:20;;;;;;;25.23;21.90;;;13.00;39.00;;;;;;4848971;29;20436;-86
2022/03/20 09:40:59;;;;;;;25.20;21.27;;;14.10;39.90;;;;;;4867469;29;20443;-84
2022/03/20 09:43:58;;;;;;;22.67;20.27;;;12.30;38.30;;;;;;4886968;29;20850;-87
2022/03/20 09:47:11;;;;;;;;;;;;;;;;;;;;;
2022/03/20 09:50:18;;;;;;;30.37;22.73;;;11.20;37.80;;;;;;4892762;29;20754;-87
2022/03/20 09:53:25;;;;;;;23.37;20.73;;;12.40;39.80;;;;;;4887032;29;20582;-86
2022/03/20 09:56:19;;;;;;;26.97;22.70;;;11.60;39.60;;;;;;4877004;29;20441;-85
2022/03/20 10:01:53;;;;;;;27.77;23.00;;;13.30;41.70;;;;;;4880347;29;20458;-86
2022/03/20 10:07:43;;;;;;;24.03;21.57;;;11.90;39.40;;;;;;5056855;23;20594;-89
2022/03/20 10:11:14;;;;;;;26.40;23.17;;;12.20;39.50;;;;;;4929310;29;20493;-88
2022/03/20 10:14:43;;;;;;;23.70;20.97;;;10.80;38.60;;;;;;4931341;29;20451;-89
2022/03/20 10:18:07;;;;;;;25.37;22.50;;;13.50;39.70;;;;;;4927210;29;20450;-89
2022/03/20 10:22:01;;;;;;;27.30;23.60;;;11.90;38.80;;;;;;4919329;29;20428;-89
2022/03/20 10:25:42;;;;;;;;;;;;;;;;;;;;;
2022/03/20 10:28:26;;;;;;;26.73;23.57;;;14.80;40.00;;;;;;4875624;29;20442;-85
2022/03/20 10:31:10;;;;;;;28.43;23.77;;;13.80;40.20;;;;;;4879171;28;20441;-87
2022/03/20 10:34:10;;;;;;;27.50;24.53;;;12.70;37.60;;;;;;5081717;23;20494;-85
2022/03/20 10:40:48;;;;;;;27.67;24.63;;;15.90;40.70;;;;;;4913871;29;20549;-86
2022/03/20 10:43:31;;;;;;;31.93;28.47;;;14.40;39.50;;;;;;4901697;29;20443;-87
2022/03/20 10:46:05;;;;;;;32.83;26.90;;;13.90;39.10;;;;;;4910852;29;20409;-86
2022/03/20 10:48:45;;;;;;;26.70;24.00;;;13.90;41.00;;;;;;4903553;29;20440;-86
2022/03/20 10:51:38;;;;;;;27.13;24.40;;;13.60;39.50;;;;;;4900522;29;20573;-86
2022/03/20 10:57:43;;;;;;;31.27;25.67;;;13.90;40.30;;;;;;4832451;29;20452;-86
2022/03/20 11:00:53;;;;;;;28.17;25.27;;;15.80;40.60;;;;;;4901390;29;20463;-85
2022/03/20 11:03:29;;;;;;;31.23;27.67;;;14.50;39.40;;;;;;4897916;29;20425;-85
2022/03/20 11:06:01;;;;;;;29.10;26.10;;;15.60;38.70;;;;;;4883236;29;20531;-84
2022/03/20 11:08:42;;;;;;;30.17;26.93;;;16.20;38.20;;;;;;4536160;29;9999897;-86
2022/03/20 11:11:14;;;;;;;29.30;26.10;;;16.30;38.80;;;;;;4900958;29;20469;-86
2022/03/20 11:13:52;;;;;;;35.07;31.60;;;16.40;38.20;;;;;;4883748;29;20509;-87
2022/03/20 11:16:24;;;;;;;32.43;29.13;;;17.10;38.40;;;;;;4889850;29;20424;-83
2022/03/20 11:18:53;;;;;;;32.07;28.60;;;16.30;38.30;;;;;;4872922;29;20808;-84
2022/03/20 11:21:29;;;;;;;30.13;24.13;;;16.00;38.30;;;;;;4886739;29;20440;-83
2022/03/20 11:24:00;;;;;;;30.20;27.17;;;15.80;38.80;;;;;;4872539;29;20440;-85
2022/03/20 11:26:32;;;;;;;31.40;28.00;;;15.30;37.90;;;;;;4877725;29;20623;-84
2022/03/20 11:29:08;;;;;;;29.90;26.80;;;14.60;39.30;;;;;;4904203;29;20437;-84
2022/03/20 11:31:43;;;;;;;34.07;30.47;;;15.00;39.30;;;;;;4888548;29;20733;-84
2022/03/20 11:34:09;;;;;;;28.90;26.03;;;15.80;38.80;;;;;;4893547;29;20472;-84
2022/03/20 11:37:09;;;;;;;29.57;25.20;;;17.70;39.90;;;;;;4886008;29;20527;-84
2022/03/20 11:40:40;;;;;;;;;;;;;;;;;;;;;
2022/03/20 11:43:28;;;;;;;31.77;28.57;;;16.50;37.70;;;;;;4825354;29;20512;-83
2022/03/20 11:46:51;;;;;;;31.63;28.33;;;15.40;39.40;;;;;;4821199;29;21289;-87
2022/03/20 11:50:17;;;;;;;27.90;24.90;;;14.60;39.10;;;;;;5065706;23;20678;-86
2022/03/20 11:56:54;;;;;;;32.47;28.97;;;16.00;39.50;;;;;;4801820;29;20461;-86
2022/03/20 12:00:08;;;;;;;33.40;29.80;;;16.50;39.30;;;;;;4797549;29;20445;-83
2022/03/20 12:03:16;;;;;;;31.87;28.43;;;17.30;38.00;;;;;;4846019;29;20445;-86
2022/03/20 12:06:43;;;;;;;;;;;;;;;;;;;;;
2022/03/20 12:09:56;;;;;;;35.70;28.40;;;17.70;37.10;;;;;;4876546;29;20441;-86
2022/03/20 12:13:04;;;;;;;32.60;29.07;;;17.90;37.60;;;;;;4882547;29;20487;-86
2022/03/20 12:15:55;;;;;;;31.80;27.10;;;18.10;38.20;;;;;;4902955;29;20452;-82
2022/03/20 12:22:45;;;;;;;30.57;27.47;;;17.80;38.70;;;;;;4892571;29;20445;-85
2022/03/20 12:26:14;;;;;;;35.87;28.83;;;16.40;38.10;;;;;;4834865;29;20447;-85
2022/03/20 12:28:54;;;;;;;30.67;27.43;;;16.90;41.30;;;;;;4856156;29;20589;-84
2022/03/20 12:31:27;;;;;;;33.17;29.60;;;15.20;40.80;;;;;;4895904;29;20479;-83
2022/03/20 12:34:25;;;;;;;27.00;23.97;;;13.60;41.00;;;;;;4880930;29;20453;-85
2022/03/20 12:36:56;;;;;;;32.20;27.90;;;15.00;41.60;;;;;;4878318;29;20463;-84
2022/03/20 12:40:10;;;;;;;31.10;27.83;;;15.60;44.90;;;;;;4874300;29;20430;-82
2022/03/20 12:42:53;;;;;;;28.67;25.50;;;14.50;43.00;;;;;;4894072;29;20445;-84
2022/03/20 12:45:34;;;;;;;27.70;24.70;;;13.90;44.40;;;;;;4875140;29;20461;-85
2022/03/20 12:48:22;;;;;;;29.43;24.63;;;13.20;44.40;;;;;;4868639;29;20462;-86
2022/03/20 12:59:46;;;;;;;35.13;23.40;;;13.20;45.90;;;;;;4951940;28;20553;-88
2022/03/20 13:02:24;;;;;;;33.10;25.30;;;12.80;46.80;;;;;;4913898;29;20456;-89
2022/03/20 13:05:08;;;;;;;31.87;25.20;;;14.70;50.90;;;;;;4940211;29;20430;-86
2022/03/20 13:07:41;;;;;;;31.70;21.20;;;12.60;49.80;;;;;;4939371;29;20466;-90
2022/03/20 13:10:16;;;;;;;33.70;26.03;;;13.80;50.30;;;;;;4948116;29;20450;-89
2022/03/20 13:12:57;;;;;;;32.97;26.87;;;12.60;52.70;;;;;;4941146;28;20578;-91
2022/03/20 13:15:30;;;;;;;30.83;23.87;;;13.20;52.60;;;;;;4950248;29;20435;-87
2022/03/20 13:18:01;;;;;;;31.60;25.00;;;12.20;51.80;;;;;;4944535;29;20403;-90
2022/03/20 13:20:45;;;;;;;31.00;26.17;;;14.60;54.00;;;;;;4924804;29;20439;-91
2022/03/20 13:23:12;;;;;;;31.37;23.90;;;13.60;53.00;;;;;;4923409;29;20432;-91
2022/03/20 13:25:41;;;;;;;30.77;26.43;;;12.30;51.40;;;;;;4953517;28;20518;-89
2022/03/20 13:28:38;;;;;;;29.00;25.90;;;12.80;52.20;;;;;;4918744;29;20814;-93
2022/03/20 13:31:24;;;;;;;27.50;23.87;;;12.70;51.10;;;;;;4926412;29;20423;-92
2022/03/20 13:33:57;;;;;;;28.77;24.53;;;14.40;53.20;;;;;;4912901;29;20455;-90
2022/03/20 13:36:34;;;;;;;32.33;26.50;;;12.70;51.40;;;;;;4924494;29;20456;-90
2022/03/20 13:39:21;;;;;;;32.50;25.50;;;14.90;53.50;;;;;;4924126;29;20454;-92
2022/03/20 13:41:49;;;;;;;29.27;26.00;;;12.60;51.70;;;;;;4910893;28;20428;-93
2022/03/20 13:44:22;;;;;;;34.63;26.43;;;13.50;53.90;;;;;;4947032;28;20493;-93
2022/03/20 13:46:48;;;;;;;32.00;27.80;;;12.60;54.60;;;;;;4907890;29;20424;-91
2022/03/20 13:49:20;;;;;;;33.50;27.20;;;12.20;56.10;;;;;;4960755;28;20477;-91
2022/03/20 13:51:49;;;;;;;30.40;27.10;;;13.00;57.60;;;;;;4934132;29;20475;-93
2022/03/20 13:54:24;;;;;;;34.90;28.17;;;11.60;58.30;;;;;;4936802;29;20484;-91
2022/03/20 13:57:13;;;;;;;37.43;29.57;;;12.40;58.20;;;;;;4920523;29;20435;-91
2022/03/20 14:00:08;;;;;;;33.80;28.60;;;12.20;57.00;;;;;;4906512;29;20448;-92
2022/03/20 14:02:47;;;;;;;34.90;25.77;;;11.20;58.90;;;;;;4920935;29;20458;-89
2022/03/20 14:05:21;;;;;;;37.53;27.60;;;14.00;62.40;;;;;;4905409;29;20431;-88
2022/03/20 14:07:47;;;;;;;32.57;26.53;;;12.40;59.90;;;;;;4898676;29;20448;-91
2022/03/20 14:10:32;;;;;;;35.47;27.33;;;12.30;60.80;;;;;;4936534;29;20467;-92
2022/03/20 14:13:25;;;;;;;32.10;25.03;;;12.30;67.80;;;;;;4892574;29;20484;-89
2022/03/20 14:15:56;;;;;;;34.50;28.03;;;13.40;74.00;;;;;;4913137;29;20522;-92
2022/03/20 14:18:22;;;;;;;36.00;30.13;;;12.50;81.30;;;;;;4924640;29;20447;-91
2022/03/20 14:20:48;;;;;;;36.37;28.80;;;12.20;91.30;;;;;;4912235;29;20439;-93
2022/03/20 14:23:15;;;;;;;33.33;28.90;;;11.00;96.00;;;;;;4930110;29;20220;-92
2022/03/20 14:25:52;;;;;;;35.93;28.73;;;12.90;99.90;;;;;;4936861;29;20440;-92
2022/03/20 14:28:36;;;;;;;35.23;25.20;;;11.00;99.90;;;;;;4898911;29;21075;-88
2022/03/20 14:39:26;;;;;;;35.43;28.27;;;10.20;99.90;;;;;;4927654;29;20451;-89
2022/03/20 14:39:48;;;;;;;35.23;27.93;;;11.30;99.90;;;;;;4917262;29;20489;-92
2022/03/20 14:42:46;;;;;;;36.00;27.77;;;11.40;99.90;;;;;;4901767;29;20420;-91
2022/03/20 14:45:16;;;;;;;39.80;28.50;;;10.70;99.90;;;;;;4915199;29;20458;-91
2022/03/20 14:47:42;;;;;;;36.97;28.63;;;9.90;99.90;;;;;;4903831;29;20500;-92
2022/03/20 14:50:08;;;;;;;42.63;29.20;;;9.70;99.90;;;;;;4913436;29;20843;-89
2022/03/20 14:52:42;;;;;;;38.30;27.97;;;9.80;99.90;;;;;;4921384;29;20579;-92
2022/03/20 14:55:10;;;;;;;38.90;30.60;;;9.20;99.90;;;;;;4905793;29;20633;-91
2022/03/20 14:57:38;;;;;;;35.67;29.83;;;9.60;99.90;;;;;;4930338;29;20558;-92
2022/03/20 15:00:04;;;;;;;40.43;26.93;;;9.70;99.90;;;;;;4935346;29;20445;-91
2022/03/20 15:02:30;;;;;;;36.43;27.00;;;9.80;99.90;;;;;;4925801;29;20486;-92
2022/03/20 15:04:56;;;;;;;37.80;27.77;;;8.80;99.90;;;;;;4940743;29;20491;-90
2022/03/20 15:07:26;;;;;;;42.30;29.67;;;10.10;99.90;;;;;;4930203;29;20443;-90
2022/03/20 15:12:42;;;;;;;38.40;29.10;;;10.20;99.90;;;;;;4935893;29;20580;-91
2022/03/20 15:15:11;;;;;;;32.77;27.67;;;9.80;99.90;;;;;;4945192;29;20459;-91
2022/03/20 15:23:07;;;;;;;36.60;27.77;;;10.50;99.90;;;;;;2986063;23;20488;-84
2022/03/20 15:25:44;;;;;;;31.80;27.30;;;10.80;99.90;;;;;;4932504;29;20438;-83
2022/03/20 15:28:13;;;;;;;38.03;28.90;;;10.60;99.90;;;;;;4909161;29;20482;-84
2022/03/20 15:30:38;;;;;;;35.07;30.37;;;10.60;99.90;;;;;;4914484;29;20844;-83
2022/03/20 15:33:04;;;;;;;35.43;27.00;;;10.80;99.90;;;;;;4941305;28;20573;-82
2022/03/20 15:35:30;;;;;;;34.33;28.10;;;11.00;99.90;;;;;;4943672;28;20566;-83
2022/03/20 15:37:57;;;;;;;35.42;27.85;;;11.30;99.90;;;;;;4573939;29;10000572;-84
2022/03/20 15:40:23;;;;;;;36.40;29.43;;;10.50;99.90;;;;;;4935384;28;20278;-82
2022/03/20 15:42:49;;;;;;;33.37;28.60;;;10.90;99.90;;;;;;4924073;29;20490;-80
2022/03/20 15:45:18;;;;;;;33.03;25.93;;;11.20;99.90;;;;;;4915057;29;20864;-79
2022/03/20 15:47:44;;;;;;;35.67;25.87;;;10.30;99.90;;;;;;4903209;29;20211;-79
2022/03/20 15:50:10;;;;;;;32.17;27.00;;;12.50;99.90;;;;;;4892095;29;20439;-81
2022/03/20 15:52:46;;;;;;;36.17;28.17;;;11.40;99.90;;;;;;4894776;29;20487;-80
2022/03/20 15:55:12;;;;;;;31.57;24.70;;;11.50;99.90;;;;;;4895805;29;20429;-80
2022/03/20 15:57:40;;;;;;;34.90;26.13;;;11.60;99.90;;;;;;4913573;29;20455;-81
2022/03/20 16:00:06;;;;;;;31.40;27.30;;;11.70;99.90;;;;;;4916841;29;20206;-81
2022/03/20 16:02:32;;;;;;;35.10;25.20;;;11.70;99.90;;;;;;4918887;29;20444;-80
2022/03/20 16:04:57;;;;;;;35.50;26.23;;;11.50;99.90;;;;;;4898777;29;20824;-81
2022/03/20 16:07:24;;;;;;;32.27;27.33;;;11.60;99.90;;;;;;4900768;29;20198;-82
2022/03/20 16:09:50;;;;;;;31.53;28.10;;;11.60;99.90;;;;;;4901990;29;20663;-78
2022/03/20 16:12:16;;;;;;;30.33;26.97;;;11.60;99.90;;;;;;4903919;29;20483;-79
2022/03/20 16:14:42;;;;;;;32.50;27.27;;;11.70;99.90;;;;;;4899932;29;20978;-84
2022/03/20 16:17:11;;;;;;;29.87;24.47;;;11.80;99.90;;;;;;4914452;29;20576;-82
2022/03/20 16:19:37;;;;;;;32.70;27.07;;;11.80;99.90;;;;;;4896801;29;20595;-84
2022/03/20 16:22:03;;;;;;;34.70;26.57;;;11.70;99.90;;;;;;4907319;29;21026;-83
2022/03/20 16:30:05;;;;;;;37.10;27.23;;;11.90;99.90;;;;;;4916844;29;20446;-83
2022/03/20 16:33:12;;;;;;;30.00;25.60;;;10.70;99.90;;;;;;4889113;29;20524;-82
2022/03/20 16:35:38;;;;;;;31.27;24.53;;;11.40;99.90;;;;;;4887480;29;20546;-82
2022/03/20 16:38:03;;;;;;;29.17;25.60;;;12.30;99.90;;;;;;4902939;29;20531;-85
2022/03/20 16:40:32;;;;;;;29.23;24.93;;;12.40;99.90;;;;;;4904240;29;20207;-83
2022/03/20 16:42:58;;;;;;;28.97;23.13;;;13.60;99.90;;;;;;4892049;29;20181;-83
2022/03/20 16:45:26;;;;;;;34.43;24.60;;;10.90;99.90;;;;;;4889847;29;20459;-84
2022/03/20 16:47:52;;;;;;;25.83;20.63;;;12.20;99.90;;;;;;4926588;29;20217;-82
2022/03/20 16:50:19;;;;;;;28.20;22.67;;;12.30;99.90;;;;;;4926334;29;20962;-83
2022/03/20 16:52:46;;;;;;;26.20;21.77;;;12.20;99.90;;;;;;4904991;29;20319;-83
2022/03/20 16:55:12;;;;;;;21.77;18.73;;;14.20;99.90;;;;;;4902186;29;20424;-83
2022/03/20 16:57:38;;;;;;;21.70;17.60;;;13.10;99.90;;;;;;4905551;29;20459;-83
2022/03/20 17:00:11;;;;;;;19.60;17.60;;;12.10;98.10;;;;;;4924023;29;20436;-88